createdAt,value
2018-11-22T00:00:54.556Z,25.57
2018-11-22T00:04:03.594Z,27.63
2018-11-22T00:06:53.620Z,26.77
2018-11-22T00:09:42.827Z,27.67
2018-11-22T00:12:34.088Z,28.53
2018-11-22T00:15:24.312Z,27.03
2018-11-22T00:18:14.282Z,28.30
2018-11-22T00:21:03.435Z,28.50
2018-11-22T00:23:52.605Z,36.33
2018-11-22T00:26:41.717Z,27.20
2018-11-22T00:29:31.220Z,26.17
2018-11-22T00:32:20.458Z,25.40
2018-11-22T00:35:11.380Z,26.20
2018-11-22T00:38:00.576Z,24.80
2018-11-22T00:40:49.666Z,25.67
2018-11-22T00:43:39.806Z,25.10
2018-11-22T00:46:29.882Z,25.73
2018-11-22T00:54:39.723Z,26.73
2018-11-22T00:57:29.161Z,27.90
2018-11-22T01:00:29.322Z,27.80
2018-11-22T01:03:18.710Z,29.07
2018-11-22T01:06:00.744Z,27.97
2018-11-22T01:08:50.172Z,29.10
2018-11-22T01:11:32.372Z,30.30
2018-11-22T01:14:21.804Z,29.63
2018-11-22T01:17:04.151Z,31.23
2018-11-22T01:19:53.230Z,32.57
2018-11-22T01:22:35.331Z,31.57
2018-11-22T01:25:24.784Z,31.93
2018-11-22T01:28:11.629Z,33.00
2018-11-22T01:31:00.727Z,31.40
2018-11-22T01:33:42.647Z,32.60
2018-11-22T01:36:31.711Z,32.63
2018-11-22T01:39:13.670Z,30.93
2018-11-22T01:42:02.799Z,31.57
2018-11-22T01:44:45.135Z,31.37
2018-11-22T01:47:34.181Z,31.10
2018-11-22T01:50:23.236Z,32.33
2018-11-22T01:53:05.615Z,31.63
2018-11-22T01:55:54.801Z,31.20
2018-11-22T01:58:43.915Z,30.93
2018-11-22T02:01:33.126Z,29.90
2018-11-22T02:04:22.223Z,30.33
2018-11-22T02:07:11.519Z,31.67
2018-11-22T02:10:09.244Z,31.47
2018-11-22T02:12:58.431Z,30.23
2018-11-22T02:15:47.433Z,27.27
2018-11-22T02:18:30.023Z,27.17
2018-11-22T02:21:19.119Z,27.17
2018-11-22T02:24:08.299Z,27.40
2018-11-22T02:26:57.457Z,26.07
2018-11-22T02:29:46.551Z,25.70
2018-11-22T02:32:35.690Z,25.63
2018-11-22T02:35:25.220Z,23.53
2018-11-22T02:38:14.426Z,23.57
2018-11-22T02:41:03.595Z,23.33
2018-11-22T02:43:52.706Z,24.23
2018-11-22T02:46:42.039Z,26.03
2018-11-22T02:49:31.547Z,26.27
2018-11-22T02:52:23.485Z,26.97
2018-11-22T02:55:13.469Z,25.97
2018-11-22T02:57:55.498Z,25.00
2018-11-22T03:03:33.727Z,26.63
2018-11-22T03:06:22.776Z,27.60
2018-11-22T03:09:07.748Z,27.47
2018-11-22T03:11:56.808Z,28.13
2018-11-22T03:14:39.318Z,28.00
2018-11-22T03:17:28.396Z,27.20
2018-11-22T03:20:11.655Z,28.17
2018-11-22T03:23:00.742Z,28.57
2018-11-22T03:25:42.866Z,31.00
2018-11-22T03:28:31.957Z,28.83
2018-11-22T03:31:13.775Z,29.97
2018-11-22T03:34:02.804Z,30.93
2018-11-22T03:36:45.178Z,30.37
2018-11-22T03:39:34.240Z,30.23
2018-11-22T03:42:16.685Z,30.60
2018-11-22T03:45:06.299Z,28.77
2018-11-22T03:47:48.581Z,32.73
2018-11-22T03:50:37.749Z,32.63
2018-11-22T03:53:19.466Z,31.87
2018-11-22T03:56:08.954Z,30.53
2018-11-22T03:58:51.410Z,31.37
2018-11-22T04:01:40.487Z,33.10
2018-11-22T04:04:22.520Z,31.77
2018-11-22T04:07:11.585Z,32.57
2018-11-22T04:10:00.680Z,35.63
2018-11-22T04:12:42.713Z,33.50
2018-11-22T04:15:32.043Z,32.00
2018-11-22T04:18:21.133Z,35.13
2018-11-22T04:21:10.202Z,33.10
2018-11-22T04:23:52.364Z,32.53
2018-11-22T04:26:41.938Z,33.00
2018-11-22T04:29:27.682Z,32.57
2018-11-22T04:32:16.817Z,33.03
2018-11-22T04:34:58.269Z,34.13
2018-11-22T04:37:47.327Z,35.73
2018-11-22T04:40:30.344Z,34.50
2018-11-22T04:43:19.421Z,34.33
2018-11-22T04:46:02.697Z,35.07
2018-11-22T04:48:51.821Z,33.80
2018-11-22T04:51:38.059Z,33.53
2018-11-22T04:54:27.161Z,32.90
2018-11-22T04:57:10.743Z,33.17
2018-11-22T04:59:59.953Z,30.83
2018-11-22T05:02:42.982Z,31.33
2018-11-22T05:05:32.189Z,32.03
2018-11-22T05:08:21.397Z,32.73
2018-11-22T05:14:00.118Z,34.57
2018-11-22T05:16:49.613Z,33.83
2018-11-22T05:19:35.957Z,34.23
2018-11-22T05:22:25.362Z,34.80
2018-11-22T05:25:12.023Z,33.73
2018-11-22T05:27:53.840Z,34.63
2018-11-22T05:30:42.891Z,35.93
2018-11-22T05:33:24.531Z,35.73
2018-11-22T05:36:13.598Z,37.87
2018-11-22T05:38:55.418Z,41.93
2018-11-22T05:41:44.799Z,42.20
2018-11-22T05:44:26.627Z,43.50
2018-11-22T05:47:15.753Z,51.40
2018-11-22T05:49:58.065Z,49.40
2018-11-22T05:52:47.695Z,44.40
2018-11-22T05:55:31.657Z,49.03
2018-11-22T05:58:20.743Z,41.97
2018-11-22T06:01:03.153Z,46.80
2018-11-22T06:03:52.221Z,52.33
2018-11-22T06:06:36.279Z,50.30
2018-11-22T06:09:27.877Z,46.23
2018-11-22T06:12:10.579Z,49.97
2018-11-22T06:14:59.673Z,49.83
2018-11-22T06:17:43.671Z,41.63
2018-11-22T06:20:52.083Z,47.03
2018-11-22T06:23:36.285Z,52.23
2018-11-22T06:26:26.219Z,44.40
2018-11-22T06:29:08.023Z,40.97
2018-11-22T06:31:57.169Z,37.67
2018-11-22T06:34:38.797Z,46.97
2018-11-22T06:37:27.878Z,41.00
2018-11-22T06:40:10.725Z,36.67
2018-11-22T06:43:00.453Z,34.70
2018-11-22T06:45:42.594Z,33.87
2018-11-22T06:48:31.618Z,32.40
2018-11-22T06:51:13.383Z,32.97
2018-11-22T06:54:02.432Z,42.10
2018-11-22T06:56:44.485Z,32.90
2018-11-22T06:59:33.608Z,33.80
2018-11-22T07:02:15.431Z,30.37
2018-11-22T07:05:05.283Z,33.83
2018-11-22T07:07:47.457Z,36.90
2018-11-22T07:10:36.511Z,37.13
2018-11-22T07:13:18.596Z,35.73
2018-11-22T07:16:07.665Z,42.50
2018-11-22T07:18:49.953Z,31.47
2018-11-22T07:21:39.017Z,32.50
2018-11-22T07:27:38.352Z,30.47
2018-11-22T07:30:20.619Z,25.63
2018-11-22T07:33:10.767Z,27.07
2018-11-22T07:35:59.896Z,25.00
2018-11-22T07:38:48.986Z,23.90
2018-11-22T07:41:38.872Z,24.13
2018-11-22T07:44:22.418Z,25.77
2018-11-22T07:47:12.115Z,25.23
2018-11-22T07:56:00.079Z,20.60
2018-11-22T07:58:41.913Z,23.53
2018-11-22T08:01:31.150Z,21.93
2018-11-22T08:04:20.305Z,23.03
2018-11-22T08:07:09.555Z,23.77
2018-11-22T08:09:58.586Z,25.40
2018-11-22T08:12:48.470Z,33.70
2018-11-22T08:15:38.973Z,26.87
2018-11-22T08:18:08.729Z,26.07
2018-11-22T08:21:04.551Z,27.63
2018-11-22T08:23:40.207Z,29.57
2018-11-22T08:26:29.318Z,30.80
2018-11-22T08:29:11.323Z,27.67
2018-11-22T08:32:00.367Z,27.77
2018-11-22T08:34:42.726Z,31.70
2018-11-22T08:37:31.788Z,29.47
2018-11-22T08:40:39.407Z,27.80
2018-11-22T08:43:28.442Z,27.10
2018-11-22T08:46:10.233Z,26.40
2018-11-22T08:48:59.324Z,28.13
2018-11-22T08:51:41.136Z,29.03
2018-11-22T08:54:30.206Z,27.27
2018-11-22T08:57:11.802Z,26.90
2018-11-22T08:59:41.513Z,26.60
2018-11-22T09:02:30.532Z,28.27
2018-11-22T09:05:13.660Z,24.83
2018-11-22T09:08:02.765Z,27.13
2018-11-22T09:10:51.877Z,28.60
2018-11-22T09:13:40.914Z,28.63
2018-11-22T09:16:23.143Z,28.50
2018-11-22T09:19:12.197Z,30.40
2018-11-22T09:24:53.464Z,31.10
2018-11-22T09:27:43.160Z,33.37
2018-11-22T09:30:33.708Z,31.97
2018-11-22T09:33:17.158Z,31.73
2018-11-22T09:38:53.309Z,31.07
2018-11-22T09:41:40.039Z,31.10
2018-11-22T09:44:22.470Z,28.73
2018-11-22T09:47:11.520Z,28.93
2018-11-22T09:50:00.632Z,30.50
2018-11-22T09:52:50.529Z,29.97
2018-11-22T09:55:39.642Z,30.07
2018-11-22T09:58:28.737Z,28.83
2018-11-22T10:01:17.766Z,29.47
2018-11-22T10:04:06.968Z,31.33
2018-11-22T10:06:56.013Z,32.60
2018-11-22T10:09:38.248Z,34.27
2018-11-22T10:12:27.279Z,34.83
2018-11-22T10:15:17.926Z,33.33
2018-11-22T10:18:07.000Z,31.40
2018-11-22T10:20:49.288Z,31.37
2018-11-22T10:23:38.306Z,32.73
2018-11-22T10:26:20.050Z,31.33
2018-11-22T10:29:09.154Z,30.43
2018-11-22T10:31:51.413Z,28.83
2018-11-22T10:34:21.124Z,30.97
2018-11-22T10:37:10.199Z,29.73
2018-11-22T10:39:51.837Z,29.23
2018-11-22T10:42:42.025Z,29.17
2018-11-22T10:45:32.756Z,29.53
2018-11-22T10:48:21.944Z,28.00
2018-11-22T10:51:11.042Z,28.83
2018-11-22T10:54:00.072Z,28.97
2018-11-22T10:56:49.126Z,29.17
2018-11-22T10:59:30.836Z,28.77
2018-11-22T11:02:38.768Z,28.63
2018-11-22T11:05:39.618Z,29.37
2018-11-22T11:08:29.752Z,29.53
2018-11-22T11:11:11.718Z,28.57
2018-11-22T11:14:19.695Z,29.43
2018-11-22T11:17:01.567Z,30.90
2018-11-22T11:19:50.621Z,31.53
2018-11-22T11:22:33.354Z,32.10
2018-11-22T11:25:22.404Z,30.87
2018-11-22T11:28:04.074Z,31.07
2018-11-22T11:30:53.149Z,32.00
2018-11-22T11:33:35.381Z,31.63
2018-11-22T11:36:24.371Z,30.30
2018-11-22T11:39:07.281Z,31.13
2018-11-22T11:41:56.328Z,34.60
2018-11-22T11:44:38.847Z,33.63
2018-11-22T11:47:27.917Z,35.23
2018-11-22T11:53:10.233Z,32.17
2018-11-22T11:55:52.533Z,31.60
2018-11-22T11:58:41.737Z,31.17
2018-11-22T12:01:30.863Z,30.57
2018-11-22T12:04:19.989Z,31.60
2018-11-22T12:07:09.111Z,32.97
2018-11-22T12:09:58.216Z,34.00
2018-11-22T12:12:47.741Z,32.30
2018-11-22T12:15:36.855Z,33.43
2018-11-22T12:18:26.016Z,32.37
2018-11-22T12:21:15.137Z,32.57
2018-11-22T12:24:04.290Z,33.80
2018-11-22T12:26:53.423Z,31.17
2018-11-22T12:29:23.224Z,29.63
2018-11-22T12:32:13.101Z,29.90
2018-11-22T12:35:06.625Z,30.73
2018-11-22T12:38:15.694Z,31.10
2018-11-22T12:41:04.784Z,30.77
2018-11-22T12:43:53.989Z,30.60
2018-11-22T12:46:43.161Z,31.53
2018-11-22T12:49:32.336Z,32.43
2018-11-22T12:52:21.480Z,33.10
2018-11-22T12:55:11.371Z,32.30
2018-11-22T12:58:00.608Z,31.83
2018-11-22T13:00:49.751Z,32.90
2018-11-22T13:03:38.806Z,32.17
2018-11-22T13:06:28.030Z,32.23
2018-11-22T13:09:17.830Z,30.93
2018-11-22T13:12:06.904Z,32.37
2018-11-22T13:14:49.496Z,32.33
2018-11-22T13:17:38.810Z,32.00
2018-11-22T13:20:27.961Z,31.70
2018-11-22T13:23:17.074Z,30.87
2018-11-22T13:26:06.193Z,30.60
2018-11-22T13:28:55.487Z,30.43
2018-11-22T13:31:44.895Z,31.23
2018-11-22T13:34:34.403Z,32.37
2018-11-22T13:37:23.422Z,31.27
2018-11-22T13:40:13.265Z,31.30
2018-11-22T13:43:02.276Z,30.77
2018-11-22T13:45:44.051Z,31.47
2018-11-22T13:48:33.193Z,31.30
2018-11-22T13:51:15.045Z,31.77
2018-11-22T13:54:04.132Z,32.77
2018-11-22T13:56:46.131Z,30.67
2018-11-22T13:59:35.230Z,32.43
2018-11-22T14:02:17.361Z,31.27
2018-11-22T14:05:11.513Z,31.63
2018-11-22T14:07:48.713Z,32.43
2018-11-22T14:10:37.793Z,32.77
2018-11-22T14:13:19.897Z,32.60
2018-11-22T14:16:09.147Z,31.47
2018-11-22T14:18:58.287Z,32.07
2018-11-22T14:21:47.458Z,32.50
2018-11-22T14:24:36.595Z,32.00
2018-11-22T14:27:25.725Z,33.33
2018-11-22T14:30:33.777Z,33.03
2018-11-22T14:33:22.797Z,31.80
2018-11-22T14:36:11.815Z,31.27
2018-11-22T14:39:00.855Z,31.40
2018-11-22T14:41:43.465Z,31.93
2018-11-22T14:44:32.513Z,33.73
2018-11-22T14:47:14.581Z,34.23
2018-11-22T14:50:04.607Z,32.10
2018-11-22T14:52:47.966Z,33.17
2018-11-22T14:55:37.104Z,33.60
2018-11-22T14:58:19.106Z,34.40
2018-11-22T15:01:08.130Z,35.67
2018-11-22T15:03:49.991Z,38.43
2018-11-22T15:06:39.001Z,38.20
2018-11-22T15:09:21.359Z,38.27
2018-11-22T15:12:10.424Z,38.00
2018-11-22T15:14:52.116Z,38.33
2018-11-22T15:17:41.523Z,37.60
2018-11-22T15:20:24.297Z,38.67
2018-11-22T15:23:13.317Z,38.23
2018-11-22T15:25:55.227Z,39.40
2018-11-22T15:28:44.277Z,39.57
2018-11-22T15:31:33.328Z,39.47
2018-11-22T15:34:15.473Z,39.97
2018-11-22T15:37:04.576Z,38.93
2018-11-22T15:39:53.718Z,37.63
2018-11-22T15:42:43.380Z,40.27
2018-11-22T15:45:34.943Z,40.63
2018-11-22T15:48:22.082Z,38.87
2018-11-22T15:51:11.165Z,40.43
2018-11-22T15:54:00.262Z,38.20
2018-11-22T15:56:49.438Z,38.43
2018-11-22T15:59:38.708Z,37.10
2018-11-22T16:02:28.281Z,37.87
2018-11-22T16:05:17.928Z,37.50
2018-11-22T16:08:07.124Z,37.53
2018-11-22T16:10:56.263Z,34.40
2018-11-22T16:13:45.390Z,37.97
2018-11-22T16:16:34.551Z,43.30
2018-11-22T16:19:23.769Z,40.37
2018-11-22T16:22:12.876Z,37.77
2018-11-22T16:25:01.899Z,39.80
2018-11-22T16:27:51.006Z,40.90
2018-11-22T16:30:40.768Z,38.53
2018-11-22T16:33:22.530Z,38.30
2018-11-22T16:36:11.577Z,38.27
2018-11-22T16:38:53.455Z,36.47
2018-11-22T16:41:42.522Z,40.03
2018-11-22T16:44:24.417Z,38.63
2018-11-22T16:47:13.503Z,46.93
2018-11-22T16:49:55.906Z,42.63
2018-11-22T16:52:45.012Z,42.47
2018-11-22T16:58:37.096Z,49.77
2018-11-22T17:01:19.078Z,38.60
2018-11-22T17:04:08.189Z,37.60
2018-11-22T17:06:57.326Z,40.10
2018-11-22T17:09:46.425Z,37.30
2018-11-22T17:12:35.615Z,39.20
2018-11-22T17:15:26.293Z,37.13
2018-11-22T17:18:15.431Z,36.17
2018-11-22T17:21:04.542Z,35.73
2018-11-22T17:23:53.593Z,35.80
2018-11-22T17:26:35.793Z,35.30
2018-11-22T17:29:24.945Z,33.33
2018-11-22T17:32:14.027Z,36.40
2018-11-22T17:35:03.107Z,38.10
2018-11-22T17:37:52.757Z,38.03
2018-11-22T17:40:36.642Z,37.00
2018-11-22T17:43:25.688Z,36.37
2018-11-22T17:46:07.204Z,31.27
2018-11-22T17:51:58.405Z,52.33
2018-11-22T17:54:47.607Z,38.03
2018-11-22T17:57:36.671Z,42.83
2018-11-22T18:00:38.317Z,40.00
2018-11-22T18:03:27.425Z,47.60
2018-11-22T18:06:16.627Z,40.93
2018-11-22T18:09:26.261Z,37.67
2018-11-22T18:12:15.447Z,34.07
2018-11-22T18:15:04.642Z,40.73
2018-11-22T18:17:54.427Z,39.50
2018-11-22T18:20:43.559Z,35.90
2018-11-22T18:23:32.925Z,36.87
2018-11-22T18:28:53.717Z,47.27
2018-11-22T18:34:31.936Z,35.63
2018-11-22T18:37:14.445Z,36.03
2018-11-22T18:40:03.596Z,36.50
2018-11-22T18:42:53.677Z,36.07
2018-11-22T18:45:37.899Z,68.10
2018-11-22T18:48:21.142Z,36.47
2018-11-22T18:51:10.258Z,37.60
2018-11-22T18:53:59.398Z,40.90
2018-11-22T18:56:48.579Z,36.17
2018-11-22T18:59:38.118Z,36.60
2018-11-22T19:02:27.974Z,37.07
2018-11-22T19:05:17.722Z,38.13
2018-11-22T19:08:06.947Z,37.43
2018-11-22T19:10:57.364Z,33.27
2018-11-22T19:13:47.116Z,40.10
2018-11-22T19:16:39.256Z,39.80
2018-11-22T19:19:30.069Z,33.10
2018-11-22T19:22:20.118Z,32.97
2018-11-22T19:25:10.008Z,43.43
2018-11-22T19:28:00.283Z,34.17
2018-11-22T19:30:49.946Z,33.63
2018-11-22T19:33:40.040Z,45.17
2018-11-22T19:36:29.202Z,41.30
2018-11-22T19:39:18.407Z,35.43
2018-11-22T19:44:50.833Z,41.20
2018-11-22T19:47:40.438Z,40.47
2018-11-22T19:50:23.889Z,32.00
2018-11-22T19:56:06.008Z,43.20
2018-11-22T19:58:55.368Z,43.57
2018-11-22T20:01:44.432Z,35.47
2018-11-22T20:04:33.521Z,35.23
2018-11-22T20:07:22.590Z,38.53
2018-11-22T20:10:04.638Z,45.53
2018-11-22T20:12:53.710Z,68.27
2018-11-22T20:15:36.732Z,37.53
2018-11-22T20:18:25.799Z,37.77
2018-11-22T20:21:07.960Z,36.27
2018-11-22T20:23:57.137Z,41.87
2018-11-22T20:26:39.349Z,33.60
2018-11-22T20:29:28.767Z,37.47
2018-11-22T20:32:10.710Z,36.33
2018-11-22T20:40:31.634Z,34.30
2018-11-22T20:43:14.129Z,37.13
2018-11-22T20:46:22.167Z,32.67
2018-11-22T20:49:04.285Z,31.27
2018-11-22T20:51:53.359Z,36.30
2018-11-22T20:54:23.122Z,30.83
2018-11-22T20:57:12.235Z,34.13
2018-11-22T20:59:54.444Z,35.70
2018-11-22T21:02:43.535Z,37.93
2018-11-22T21:05:32.769Z,35.50
2018-11-22T21:08:14.641Z,39.83
2018-11-22T21:11:03.773Z,38.73
2018-11-22T21:13:52.953Z,38.40
2018-11-22T21:16:42.134Z,31.00
2018-11-22T21:19:31.289Z,34.00
2018-11-22T21:22:20.603Z,33.83
2018-11-22T21:25:12.015Z,34.00
2018-11-22T21:28:01.225Z,30.27
2018-11-22T21:30:50.358Z,33.07
2018-11-22T21:33:39.910Z,31.70
2018-11-22T21:36:29.683Z,34.47
2018-11-22T21:39:18.831Z,34.40
2018-11-22T21:42:07.973Z,32.37
2018-11-22T21:44:50.094Z,33.83
2018-11-22T21:47:39.289Z,28.43
2018-11-22T21:50:29.003Z,25.13
2018-11-22T21:53:18.328Z,26.43
2018-11-22T21:56:07.527Z,26.20
2018-11-22T21:58:56.769Z,29.03
2018-11-22T22:01:45.929Z,28.43
2018-11-22T22:04:35.107Z,27.90
2018-11-22T22:07:24.256Z,26.80
2018-11-22T22:10:13.482Z,27.07
2018-11-22T22:13:02.664Z,30.13
2018-11-22T22:15:51.865Z,31.73
2018-11-22T22:21:25.334Z,26.70
2018-11-22T22:24:14.448Z,25.40
2018-11-22T22:26:56.627Z,27.93
2018-11-22T22:29:45.694Z,25.37
2018-11-22T22:32:27.612Z,31.53
2018-11-22T22:35:16.726Z,28.17
2018-11-22T22:37:59.671Z,34.13
2018-11-22T22:40:43.167Z,53.37
2018-11-22T22:48:54.084Z,40.33
2018-11-22T22:51:43.253Z,31.57
2018-11-22T22:54:32.424Z,31.00
2018-11-22T22:57:21.692Z,31.93
2018-11-22T23:03:27.997Z,26.50
2018-11-22T23:06:17.266Z,28.83
2018-11-22T23:12:17.020Z,34.67
2018-11-22T23:14:59.095Z,31.50
2018-11-22T23:17:49.721Z,25.03
2018-11-22T23:23:31.556Z,31.27
2018-11-22T23:29:26.660Z,38.50
2018-11-22T23:32:10.854Z,28.33
2018-11-22T23:35:00.309Z,30.13
2018-11-22T23:40:34.572Z,25.17
2018-11-22T23:43:24.130Z,38.73
2018-11-22T23:46:10.654Z,32.77
2018-11-22T23:51:56.506Z,39.07
2018-11-22T23:54:45.669Z,42.63
2018-11-22T23:57:35.080Z,40.47
